sensor_id;sensor_type;location;lat;lon;timestamp;P1;durP1;ratioP1;P2;durP2;ratioP2
8252;SDS011;61313;48.396;10.008;2022-09-23T00:01:06;7.90;;;6.30;;
8252;SDS011;61313;48.396;10.008;2022-09-23T00:03:34;6.33;;;5.73;;
8252;SDS011;61313;48.396;10.008;2022-09-23T00:06:13;6.47;;;5.80;;
8252;SDS011;61313;48.396;10.008;2022-09-23T00:08:41;11.10;;;5.97;;
8252;SDS011;61313;48.396;10.008;2022-09-23T00:11:09;7.80;;;6.47;;
8252;SDS011;61313;48.396;10.008;2022-09-23T00:13:37;6.70;;;6.00;;
8252;SDS011;61313;48.396;10.008;2022-09-23T00:16:06;12.77;;;6.70;;
8252;SDS011;61313;48.396;10.008;2022-09-23T00:18:34;17.93;;;6.67;;
8252;SDS011;61313;48.396;10.008;2022-09-23T00:21:06;7.17;;;6.47;;
8252;SDS011;61313;48.396;10.008;2022-09-23T00:23:34;7.80;;;6.03;;
8252;SDS011;61313;48.396;10.008;2022-09-23T00:26:00;6.33;;;5.73;;
8252;SDS011;61313;48.396;10.008;2022-09-23T00:28:27;7.57;;;6.87;;
8252;SDS011;61313;48.396;10.008;2022-09-23T00:30:53;9.07;;;6.87;;
8252;SDS011;61313;48.396;10.008;2022-09-23T00:33:18;7.83;;;6.67;;
8252;SDS011;61313;48.396;10.008;2022-09-23T00:35:44;7.07;;;6.37;;
8252;SDS011;61313;48.396;10.008;2022-09-23T00:38:11;7.47;;;5.80;;
8252;SDS011;61313;48.396;10.008;2022-09-23T00:40:42;6.70;;;6.07;;
8252;SDS011;61313;48.396;10.008;2022-09-23T00:43:10;11.20;;;7.20;;
8252;SDS011;61313;48.396;10.008;2022-09-23T00:45:38;9.17;;;6.27;;
8252;SDS011;61313;48.396;10.008;2022-09-23T00:48:04;7.90;;;6.13;;
8252;SDS011;61313;48.396;10.008;2022-09-23T00:50:36;6.73;;;6.03;;
8252;SDS011;61313;48.396;10.008;2022-09-23T00:53:06;9.93;;;6.97;;
8252;SDS011;61313;48.396;10.008;2022-09-23T00:55:36;7.57;;;6.77;;
8252;SDS011;61313;48.396;10.008;2022-09-23T00:58:08;6.60;;;6.00;;
8252;SDS011;61313;48.396;10.008;2022-09-23T01:00:36;12.17;;;6.67;;
8252;SDS011;61313;48.396;10.008;2022-09-23T01:03:04;9.33;;;6.40;;
8252;SDS011;61313;48.396;10.008;2022-09-23T01:05:31;14.40;;;7.30;;
8252;SDS011;61313;48.396;10.008;2022-09-23T01:07:58;10.77;;;6.00;;
8252;SDS011;61313;48.396;10.008;2022-09-23T01:10:27;10.67;;;6.23;;
8252;SDS011;61313;48.396;10.008;2022-09-23T01:13:25;9.40;;;6.43;;
8252;SDS011;61313;48.396;10.008;2022-09-23T01:16:14;6.97;;;5.83;;
8252;SDS011;61313;48.396;10.008;2022-09-23T01:34:48;7.63;;;6.63;;
8252;SDS011;61313;48.396;10.008;2022-09-23T01:39:58;9.23;;;6.37;;
8252;SDS011;61313;48.396;10.008;2022-09-23T01:42:48;9.10;;;6.60;;
8252;SDS011;61313;48.396;10.008;2022-09-23T01:47:57;11.83;;;7.00;;
8252;SDS011;61313;48.396;10.008;2022-09-23T01:50:28;12.80;;;6.93;;
8252;SDS011;61313;48.396;10.008;2022-09-23T01:53:18;7.20;;;6.50;;
8252;SDS011;61313;48.396;10.008;2022-09-23T01:56:13;10.80;;;6.43;;
8252;SDS011;61313;48.396;10.008;2022-09-23T01:58:45;8.60;;;6.60;;
8252;SDS011;61313;48.396;10.008;2022-09-23T02:01:17;9.43;;;6.80;;
8252;SDS011;61313;48.396;10.008;2022-09-23T02:04:11;9.13;;;6.67;;
8252;SDS011;61313;48.396;10.008;2022-09-23T02:07:19;7.40;;;6.30;;
8252;SDS011;61313;48.396;10.008;2022-09-23T02:09:34;12.53;;;7.90;;
8252;SDS011;61313;48.396;10.008;2022-09-23T02:12:05;12.03;;;7.17;;
8252;SDS011;61313;48.396;10.008;2022-09-23T02:14:44;7.67;;;6.70;;
8252;SDS011;61313;48.396;10.008;2022-09-23T02:17:36;13.60;;;7.03;;
8252;SDS011;61313;48.396;10.008;2022-09-23T02:20:05;12.90;;;8.37;;
8252;SDS011;61313;48.396;10.008;2022-09-23T02:22:33;6.63;;;5.93;;
8252;SDS011;61313;48.396;10.008;2022-09-23T02:25:05;7.00;;;6.33;;
8252;SDS011;61313;48.396;10.008;2022-09-23T02:27:40;6.40;;;5.80;;
8252;SDS011;61313;48.396;10.008;2022-09-23T02:30:16;6.00;;;5.33;;
8252;SDS011;61313;48.396;10.008;2022-09-23T02:32:51;8.17;;;7.30;;
8252;SDS011;61313;48.396;10.008;2022-09-23T02:35:30;6.53;;;5.93;;
8252;SDS011;61313;48.396;10.008;2022-09-23T02:46:19;6.53;;;5.80;;
8252;SDS011;61313;48.396;10.008;2022-09-23T02:51:17;9.80;;;7.10;;
8252;SDS011;61313;48.396;10.008;2022-09-23T02:53:43;6.80;;;6.10;;
8252;SDS011;61313;48.396;10.008;2022-09-23T02:56:17;11.23;;;6.40;;
8252;SDS011;61313;48.396;10.008;2022-09-23T02:58:45;8.60;;;6.40;;
8252;SDS011;61313;48.396;10.008;2022-09-23T03:14:44;6.73;;;6.07;;
8252;SDS011;61313;48.396;10.008;2022-09-23T03:17:26;11.13;;;7.23;;
8252;SDS011;61313;48.396;10.008;2022-09-23T03:19:59;8.97;;;7.10;;
8252;SDS011;61313;48.396;10.008;2022-09-23T03:22:34;7.30;;;6.07;;
8252;SDS011;61313;48.396;10.008;2022-09-23T03:25:05;9.60;;;6.40;;
8252;SDS011;61313;48.396;10.008;2022-09-23T03:27:35;8.47;;;6.20;;
8252;SDS011;61313;48.396;10.008;2022-09-23T03:30:02;6.93;;;6.23;;
8252;SDS011;61313;48.396;10.008;2022-09-23T03:32:29;10.87;;;6.37;;
8252;SDS011;61313;48.396;10.008;2022-09-23T03:34:57;7.73;;;6.47;;
8252;SDS011;61313;48.396;10.008;2022-09-23T03:37:26;7.73;;;7.00;;
8252;SDS011;61313;48.396;10.008;2022-09-23T03:40:16;7.33;;;6.60;;
8252;SDS011;61313;48.396;10.008;2022-09-23T03:42:43;14.73;;;7.00;;
8252;SDS011;61313;48.396;10.008;2022-09-23T03:45:10;9.13;;;6.07;;
8252;SDS011;61313;48.396;10.008;2022-09-23T03:47:42;7.10;;;5.90;;
8252;SDS011;61313;48.396;10.008;2022-09-23T03:50:09;8.17;;;6.10;;
8252;SDS011;61313;48.396;10.008;2022-09-23T03:52:37;9.80;;;7.03;;
8252;SDS011;61313;48.396;10.008;2022-09-23T03:55:04;6.90;;;6.27;;
8252;SDS011;61313;48.396;10.008;2022-09-23T03:57:31;7.20;;;5.77;;
8252;SDS011;61313;48.396;10.008;2022-09-23T03:59:56;13.30;;;6.97;;
8252;SDS011;61313;48.396;10.008;2022-09-23T04:02:22;21.40;;;7.93;;
8252;SDS011;61313;48.396;10.008;2022-09-23T04:04:48;11.03;;;6.67;;
8252;SDS011;61313;48.396;10.008;2022-09-23T04:07:14;9.67;;;7.00;;
8252;SDS011;61313;48.396;10.008;2022-09-23T04:09:40;6.70;;;6.00;;
8252;SDS011;61313;48.396;10.008;2022-09-23T04:12:06;7.40;;;6.50;;
8252;SDS011;61313;48.396;10.008;2022-09-23T04:14:32;7.93;;;6.90;;
8252;SDS011;61313;48.396;10.008;2022-09-23T04:16:58;15.20;;;6.27;;
8252;SDS011;61313;48.396;10.008;2022-09-23T04:19:23;6.63;;;6.07;;
8252;SDS011;61313;48.396;10.008;2022-09-23T04:21:49;10.67;;;6.53;;
8252;SDS011;61313;48.396;10.008;2022-09-23T04:24:15;10.67;;;7.30;;
8252;SDS011;61313;48.396;10.008;2022-09-23T04:26:41;9.80;;;6.47;;
8252;SDS011;61313;48.396;10.008;2022-09-23T04:29:07;10.03;;;7.63;;
8252;SDS011;61313;48.396;10.008;2022-09-23T04:31:35;10.03;;;7.77;;
8252;SDS011;61313;48.396;10.008;2022-09-23T04:34:00;14.73;;;6.90;;
8252;SDS011;61313;48.396;10.008;2022-09-23T04:36:26;10.07;;;7.70;;
8252;SDS011;61313;48.396;10.008;2022-09-23T04:38:54;17.43;;;7.00;;
8252;SDS011;61313;48.396;10.008;2022-09-23T04:41:20;7.83;;;6.37;;
8252;SDS011;61313;48.396;10.008;2022-09-23T04:43:46;20.47;;;8.90;;
8252;SDS011;61313;48.396;10.008;2022-09-23T04:46:12;14.90;;;8.13;;
8252;SDS011;61313;48.396;10.008;2022-09-23T04:48:39;15.80;;;7.53;;
8252;SDS011;61313;48.396;10.008;2022-09-23T04:51:07;21.00;;;8.53;;
8252;SDS011;61313;48.396;10.008;2022-09-23T04:53:36;16.43;;;7.57;;
8252;SDS011;61313;48.396;10.008;2022-09-23T04:56:03;10.90;;;7.33;;
8252;SDS011;61313;48.396;10.008;2022-09-23T04:58:35;28.63;;;8.80;;
8252;SDS011;61313;48.396;10.008;2022-09-23T05:03:59;22.47;;;8.87;;
8252;SDS011;61313;48.396;10.008;2022-09-23T05:06:26;19.30;;;6.53;;
8252;SDS011;61313;48.396;10.008;2022-09-23T05:08:54;15.20;;;6.53;;
8252;SDS011;61313;48.396;10.008;2022-09-23T05:11:21;20.50;;;7.43;;
8252;SDS011;61313;48.396;10.008;2022-09-23T05:13:49;16.00;;;8.53;;
8252;SDS011;61313;48.396;10.008;2022-09-23T05:16:17;10.17;;;8.97;;
8252;SDS011;61313;48.396;10.008;2022-09-23T05:18:44;12.70;;;9.27;;
8252;SDS011;61313;48.396;10.008;2022-09-23T05:21:13;28.90;;;8.40;;
8252;SDS011;61313;48.396;10.008;2022-09-23T05:23:40;31.63;;;7.70;;
8252;SDS011;61313;48.396;10.008;2022-09-23T05:26:08;8.00;;;7.20;;
8252;SDS011;61313;48.396;10.008;2022-09-23T05:28:35;31.97;;;9.67;;
8252;SDS011;61313;48.396;10.008;2022-09-23T05:31:07;65.27;;;11.50;;
8252;SDS011;61313;48.396;10.008;2022-09-23T05:33:36;36.57;;;8.80;;
8252;SDS011;61313;48.396;10.008;2022-09-23T05:36:02;16.73;;;7.93;;
8252;SDS011;61313;48.396;10.008;2022-09-23T05:38:28;41.33;;;11.00;;
8252;SDS011;61313;48.396;10.008;2022-09-23T05:40:59;41.23;;;10.03;;
8252;SDS011;61313;48.396;10.008;2022-09-23T05:43:27;32.70;;;9.40;;
8252;SDS011;61313;48.396;10.008;2022-09-23T05:46:00;18.20;;;8.40;;
8252;SDS011;61313;48.396;10.008;2022-09-23T05:48:31;15.77;;;7.43;;
8252;SDS011;61313;48.396;10.008;2022-09-23T05:50:57;20.13;;;9.83;;
8252;SDS011;61313;48.396;10.008;2022-09-23T05:53:24;13.43;;;8.70;;
8252;SDS011;61313;48.396;10.008;2022-09-23T05:55:50;13.50;;;7.77;;
8252;SDS011;61313;48.396;10.008;2022-09-23T05:58:18;16.90;;;9.10;;
8252;SDS011;61313;48.396;10.008;2022-09-23T06:00:44;17.10;;;8.57;;
8252;SDS011;61313;48.396;10.008;2022-09-23T06:03:14;14.17;;;9.00;;
8252;SDS011;61313;48.396;10.008;2022-09-23T06:05:41;71.40;;;13.57;;
8252;SDS011;61313;48.396;10.008;2022-09-23T06:08:07;28.40;;;10.27;;
8252;SDS011;61313;48.396;10.008;2022-09-23T06:10:37;25.50;;;10.17;;
8252;SDS011;61313;48.396;10.008;2022-09-23T06:13:03;15.40;;;8.50;;
8252;SDS011;61313;48.396;10.008;2022-09-23T06:15:29;17.67;;;9.13;;
8252;SDS011;61313;48.396;10.008;2022-09-23T06:17:55;17.37;;;9.80;;
8252;SDS011;61313;48.396;10.008;2022-09-23T06:20:21;37.20;;;9.77;;
8252;SDS011;61313;48.396;10.008;2022-09-23T06:22:46;14.20;;;9.57;;
8252;SDS011;61313;48.396;10.008;2022-09-23T06:25:12;9.60;;;8.33;;
8252;SDS011;61313;48.396;10.008;2022-09-23T06:27:38;10.23;;;8.20;;
8252;SDS011;61313;48.396;10.008;2022-09-23T06:30:04;8.80;;;7.90;;
8252;SDS011;61313;48.396;10.008;2022-09-23T06:32:31;14.40;;;8.80;;
8252;SDS011;61313;48.396;10.008;2022-09-23T06:34:57;15.67;;;8.50;;
8252;SDS011;61313;48.396;10.008;2022-09-23T06:37:23;9.50;;;8.50;;
8252;SDS011;61313;48.396;10.008;2022-09-23T06:39:49;21.43;;;9.60;;
8252;SDS011;61313;48.396;10.008;2022-09-23T06:42:15;33.90;;;12.93;;
8252;SDS011;61313;48.396;10.008;2022-09-23T06:44:41;45.70;;;13.87;;
8252;SDS011;61313;48.396;10.008;2022-09-23T06:47:07;95.33;;;15.73;;
8252;SDS011;61313;48.396;10.008;2022-09-23T06:49:33;217.53;;;25.53;;
8252;SDS011;61313;48.396;10.008;2022-09-23T06:51:59;34.90;;;10.53;;
8252;SDS011;61313;48.396;10.008;2022-09-23T06:54:25;25.40;;;9.67;;
8252;SDS011;61313;48.396;10.008;2022-09-23T06:56:53;20.43;;;9.33;;
8252;SDS011;61313;48.396;10.008;2022-09-23T06:59:19;19.33;;;9.97;;
8252;SDS011;61313;48.396;10.008;2022-09-23T07:01:44;50.33;;;11.30;;
8252;SDS011;61313;48.396;10.008;2022-09-23T07:04:12;50.00;;;10.87;;
8252;SDS011;61313;48.396;10.008;2022-09-23T07:06:38;50.17;;;12.17;;
8252;SDS011;61313;48.396;10.008;2022-09-23T07:09:04;46.17;;;12.33;;
8252;SDS011;61313;48.396;10.008;2022-09-23T07:11:31;45.87;;;11.00;;
8252;SDS011;61313;48.396;10.008;2022-09-23T07:13:57;27.23;;;11.33;;
8252;SDS011;61313;48.396;10.008;2022-09-23T07:16:23;16.50;;;10.80;;
8252;SDS011;61313;48.396;10.008;2022-09-23T07:18:49;13.17;;;9.60;;
8252;SDS011;61313;48.396;10.008;2022-09-23T07:21:17;14.93;;;13.43;;
8252;SDS011;61313;48.396;10.008;2022-09-23T07:23:43;25.93;;;16.53;;
8252;SDS011;61313;48.396;10.008;2022-09-23T07:26:11;18.20;;;16.50;;
8252;SDS011;61313;48.396;10.008;2022-09-23T07:28:37;19.17;;;17.23;;
8252;SDS011;61313;48.396;10.008;2022-09-23T07:31:07;20.03;;;16.60;;
8252;SDS011;61313;48.396;10.008;2022-09-23T07:33:35;18.60;;;16.90;;
8252;SDS011;61313;48.396;10.008;2022-09-23T07:36:08;192.03;;;35.10;;
8252;SDS011;61313;48.396;10.008;2022-09-23T07:38:36;43.27;;;21.67;;
8252;SDS011;61313;48.396;10.008;2022-09-23T07:41:03;94.47;;;24.70;;
8252;SDS011;61313;48.396;10.008;2022-09-23T07:43:35;54.83;;;20.87;;
8252;SDS011;61313;48.396;10.008;2022-09-23T07:46:05;56.00;;;19.27;;
8252;SDS011;61313;48.396;10.008;2022-09-23T07:48:35;30.17;;;17.83;;
8252;SDS011;61313;48.396;10.008;2022-09-23T07:51:08;19.17;;;15.47;;
8252;SDS011;61313;48.396;10.008;2022-09-23T07:53:36;22.93;;;15.57;;
8252;SDS011;61313;48.396;10.008;2022-09-23T07:56:02;19.90;;;15.77;;
8252;SDS011;61313;48.396;10.008;2022-09-23T07:58:30;16.80;;;14.57;;
8252;SDS011;61313;48.396;10.008;2022-09-23T08:01:07;17.53;;;15.10;;
8252;SDS011;61313;48.396;10.008;2022-09-23T08:03:34;16.50;;;14.60;;
8252;SDS011;61313;48.396;10.008;2022-09-23T08:06:10;17.87;;;15.93;;
8252;SDS011;61313;48.396;10.008;2022-09-23T08:08:37;19.10;;;15.23;;
8252;SDS011;61313;48.396;10.008;2022-09-23T08:11:07;40.13;;;16.20;;
8252;SDS011;61313;48.396;10.008;2022-09-23T08:13:35;32.00;;;14.50;;
8252;SDS011;61313;48.396;10.008;2022-09-23T08:16:01;60.77;;;16.97;;
8252;SDS011;61313;48.396;10.008;2022-09-23T08:18:26;22.97;;;13.50;;
8252;SDS011;61313;48.396;10.008;2022-09-23T08:20:52;19.30;;;11.90;;
8252;SDS011;61313;48.396;10.008;2022-09-23T08:23:18;70.03;;;15.00;;
8252;SDS011;61313;48.396;10.008;2022-09-23T08:25:44;15.77;;;12.67;;
8252;SDS011;61313;48.396;10.008;2022-09-23T08:28:11;12.27;;;11.07;;
8252;SDS011;61313;48.396;10.008;2022-09-23T08:30:40;13.53;;;12.10;;
8252;SDS011;61313;48.396;10.008;2022-09-23T08:33:10;12.87;;;11.67;;
8252;SDS011;61313;48.396;10.008;2022-09-23T08:35:36;19.00;;;11.87;;
8252;SDS011;61313;48.396;10.008;2022-09-23T08:38:02;14.30;;;12.00;;
8252;SDS011;61313;48.396;10.008;2022-09-23T08:40:27;18.10;;;12.03;;
8252;SDS011;61313;48.396;10.008;2022-09-23T08:42:53;14.27;;;11.67;;
8252;SDS011;61313;48.396;10.008;2022-09-23T08:45:20;13.17;;;11.47;;
8252;SDS011;61313;48.396;10.008;2022-09-23T08:48:07;13.77;;;11.90;;
8252;SDS011;61313;48.396;10.008;2022-09-23T08:50:42;22.07;;;12.77;;
8252;SDS011;61313;48.396;10.008;2022-09-23T08:53:33;46.40;;;15.70;;
8252;SDS011;61313;48.396;10.008;2022-09-23T08:56:03;11.70;;;10.60;;
8252;SDS011;61313;48.396;10.008;2022-09-23T09:01:55;41.47;;;14.03;;
8252;SDS011;61313;48.396;10.008;2022-09-23T09:12:18;14.87;;;9.30;;
8252;SDS011;61313;48.396;10.008;2022-09-23T09:14:51;25.13;;;9.73;;
8252;SDS011;61313;48.396;10.008;2022-09-23T09:17:35;19.93;;;8.57;;
8252;SDS011;61313;48.396;10.008;2022-09-23T09:20:27;40.87;;;10.60;;
8252;SDS011;61313;48.396;10.008;2022-09-23T09:22:57;10.80;;;8.23;;
8252;SDS011;61313;48.396;10.008;2022-09-23T09:27:57;16.43;;;7.10;;
8252;SDS011;61313;48.396;10.008;2022-09-23T09:30:23;24.83;;;9.10;;
8252;SDS011;61313;48.396;10.008;2022-09-23T09:35:26;8.83;;;7.20;;
8252;SDS011;61313;48.396;10.008;2022-09-23T09:38:01;14.00;;;7.90;;
8252;SDS011;61313;48.396;10.008;2022-09-23T09:40:27;9.93;;;7.83;;
8252;SDS011;61313;48.396;10.008;2022-09-23T09:42:53;9.67;;;8.80;;
8252;SDS011;61313;48.396;10.008;2022-09-23T09:50:49;23.77;;;9.90;;
8252;SDS011;61313;48.396;10.008;2022-09-23T09:56:03;11.53;;;9.10;;
8252;SDS011;61313;48.396;10.008;2022-09-23T10:03:52;12.80;;;9.17;;
8252;SDS011;61313;48.396;10.008;2022-09-23T10:06:21;12.20;;;9.33;;
8252;SDS011;61313;48.396;10.008;2022-09-23T10:11:34;66.77;;;15.13;;
8252;SDS011;61313;48.396;10.008;2022-09-23T10:14:11;27.40;;;12.17;;
8252;SDS011;61313;48.396;10.008;2022-09-23T10:16:38;49.53;;;14.47;;
8252;SDS011;61313;48.396;10.008;2022-09-23T10:19:25;82.30;;;17.97;;
8252;SDS011;61313;48.396;10.008;2022-09-23T10:21:53;44.00;;;13.80;;
8252;SDS011;61313;48.396;10.008;2022-09-23T10:24:24;18.00;;;10.23;;
8252;SDS011;61313;48.396;10.008;2022-09-23T10:29:39;19.63;;;9.90;;
8252;SDS011;61313;48.396;10.008;2022-09-23T10:34:49;21.23;;;10.90;;
8252;SDS011;61313;48.396;10.008;2022-09-23T10:37:36;72.33;;;17.00;;
8252;SDS011;61313;48.396;10.008;2022-09-23T10:40:27;34.80;;;11.33;;
8252;SDS011;61313;48.396;10.008;2022-09-23T10:49:34;17.60;;;11.20;;
8252;SDS011;61313;48.396;10.008;2022-09-23T10:52:27;24.90;;;11.93;;
8252;SDS011;61313;48.396;10.008;2022-09-23T11:08:13;19.10;;;11.03;;
8252;SDS011;61313;48.396;10.008;2022-09-23T11:11:17;11.47;;;10.33;;
8252;SDS011;61313;48.396;10.008;2022-09-23T11:17:26;21.57;;;10.93;;
8252;SDS011;61313;48.396;10.008;2022-09-23T11:31:13;20.70;;;11.53;;
8252;SDS011;61313;48.396;10.008;2022-09-23T11:36:36;29.60;;;13.00;;
8252;SDS011;61313;48.396;10.008;2022-09-23T11:39:17;53.73;;;15.00;;
8252;SDS011;61313;48.396;10.008;2022-09-23T11:41:48;40.87;;;14.03;;
8252;SDS011;61313;48.396;10.008;2022-09-23T11:46:54;34.80;;;13.50;;
8252;SDS011;61313;48.396;10.008;2022-09-23T11:49:29;17.73;;;12.80;;
8252;SDS011;61313;48.396;10.008;2022-09-23T11:52:17;26.40;;;12.07;;
8252;SDS011;61313;48.396;10.008;2022-09-23T11:55:02;18.47;;;12.03;;
8252;SDS011;61313;48.396;10.008;2022-09-23T12:03:02;19.93;;;11.90;;
8252;SDS011;61313;48.396;10.008;2022-09-23T12:05:38;18.13;;;12.00;;
8252;SDS011;61313;48.396;10.008;2022-09-23T12:13:34;29.93;;;14.33;;
8252;SDS011;61313;48.396;10.008;2022-09-23T12:24:46;12.70;;;11.20;;
8252;SDS011;61313;48.396;10.008;2022-09-23T12:27:44;12.40;;;11.20;;
8252;SDS011;61313;48.396;10.008;2022-09-23T12:30:26;42.97;;;14.60;;
8252;SDS011;61313;48.396;10.008;2022-09-23T12:33:07;19.70;;;11.40;;
8252;SDS011;61313;48.396;10.008;2022-09-23T12:35:36;12.67;;;11.37;;
8252;SDS011;61313;48.396;10.008;2022-09-23T12:38:26;14.90;;;11.20;;
8252;SDS011;61313;48.396;10.008;2022-09-23T12:43:52;24.63;;;11.40;;
8252;SDS011;61313;48.396;10.008;2022-09-23T12:46:39;14.83;;;11.00;;
8252;SDS011;61313;48.396;10.008;2022-09-23T12:49:22;11.60;;;9.93;;
8252;SDS011;61313;48.396;10.008;2022-09-23T12:54:37;22.40;;;11.93;;
8252;SDS011;61313;48.396;10.008;2022-09-23T12:57:11;28.50;;;10.70;;
8252;SDS011;61313;48.396;10.008;2022-09-23T13:02:58;14.30;;;9.10;;
8252;SDS011;61313;48.396;10.008;2022-09-23T13:07:50;10.57;;;9.63;;
8252;SDS011;61313;48.396;10.008;2022-09-23T13:10:29;14.37;;;9.70;;
8252;SDS011;61313;48.396;10.008;2022-09-23T13:12:57;14.37;;;9.47;;
8252;SDS011;61313;48.396;10.008;2022-09-23T13:20:48;15.27;;;10.57;;
8252;SDS011;61313;48.396;10.008;2022-09-23T13:23:19;13.17;;;11.00;;
8252;SDS011;61313;48.396;10.008;2022-09-23T13:25:53;17.47;;;10.37;;
8252;SDS011;61313;48.396;10.008;2022-09-23T13:28:25;9.53;;;8.53;;
8252;SDS011;61313;48.396;10.008;2022-09-23T13:30:56;10.00;;;9.00;;
8252;SDS011;61313;48.396;10.008;2022-09-23T13:36:13;12.10;;;9.67;;
8252;SDS011;61313;48.396;10.008;2022-09-23T13:38:41;14.60;;;9.87;;
8252;SDS011;61313;48.396;10.008;2022-09-23T13:41:20;12.33;;;9.13;;
8252;SDS011;61313;48.396;10.008;2022-09-23T13:43:53;19.33;;;10.80;;
8252;SDS011;61313;48.396;10.008;2022-09-23T13:46:56;10.83;;;9.00;;
8252;SDS011;61313;48.396;10.008;2022-09-23T13:49:21;12.77;;;9.43;;
8252;SDS011;61313;48.396;10.008;2022-09-23T13:51:48;9.20;;;8.40;;
8252;SDS011;61313;48.396;10.008;2022-09-23T13:54:30;27.83;;;9.50;;
8252;SDS011;61313;48.396;10.008;2022-09-23T13:57:00;15.10;;;7.90;;
8252;SDS011;61313;48.396;10.008;2022-09-23T13:59:30;16.93;;;7.73;;
8252;SDS011;61313;48.396;10.008;2022-09-23T14:02:09;9.80;;;6.93;;
8252;SDS011;61313;48.396;10.008;2022-09-23T14:04:36;15.17;;;7.80;;
8252;SDS011;61313;48.396;10.008;2022-09-23T14:07:02;13.00;;;7.90;;
8252;SDS011;61313;48.396;10.008;2022-09-23T14:09:28;16.33;;;6.93;;
8252;SDS011;61313;48.396;10.008;2022-09-23T14:11:56;9.83;;;8.03;;
8252;SDS011;61313;48.396;10.008;2022-09-23T14:14:24;19.23;;;8.97;;
8252;SDS011;61313;48.396;10.008;2022-09-23T14:16:51;12.90;;;9.10;;
8252;SDS011;61313;48.396;10.008;2022-09-23T14:19:19;14.50;;;8.23;;
8252;SDS011;61313;48.396;10.008;2022-09-23T14:21:48;26.90;;;9.13;;
8252;SDS011;61313;48.396;10.008;2022-09-23T14:24:16;35.27;;;9.43;;
8252;SDS011;61313;48.396;10.008;2022-09-23T14:29:29;16.10;;;7.50;;
8252;SDS011;61313;48.396;10.008;2022-09-23T14:31:58;18.23;;;8.63;;
8252;SDS011;61313;48.396;10.008;2022-09-23T14:40:01;24.53;;;9.23;;
8252;SDS011;61313;48.396;10.008;2022-09-23T14:42:29;23.93;;;7.80;;
8252;SDS011;61313;48.396;10.008;2022-09-23T14:45:02;22.60;;;8.20;;
8252;SDS011;61313;48.396;10.008;2022-09-23T14:47:30;21.33;;;8.67;;
8252;SDS011;61313;48.396;10.008;2022-09-23T14:49:57;17.30;;;9.20;;
8252;SDS011;61313;48.396;10.008;2022-09-23T14:52:48;8.60;;;7.70;;
8252;SDS011;61313;48.396;10.008;2022-09-23T14:55:14;8.90;;;7.83;;
8252;SDS011;61313;48.396;10.008;2022-09-23T14:57:41;11.50;;;8.90;;
8252;SDS011;61313;48.396;10.008;2022-09-23T15:02:43;12.00;;;8.30;;
8252;SDS011;61313;48.396;10.008;2022-09-23T15:05:22;9.93;;;7.40;;
8252;SDS011;61313;48.396;10.008;2022-09-23T15:08:00;11.97;;;8.10;;
8252;SDS011;61313;48.396;10.008;2022-09-23T15:10:31;12.27;;;8.47;;
8252;SDS011;61313;48.396;10.008;2022-09-23T15:13:22;10.30;;;8.00;;
8252;SDS011;61313;48.396;10.008;2022-09-23T15:15:52;16.03;;;9.03;;
8252;SDS011;61313;48.396;10.008;2022-09-23T15:18:20;10.07;;;8.13;;
8252;SDS011;61313;48.396;10.008;2022-09-23T15:20:55;29.13;;;9.10;;
8252;SDS011;61313;48.396;10.008;2022-09-23T15:26:14;32.93;;;8.83;;
8252;SDS011;61313;48.396;10.008;2022-09-23T15:28:42;23.50;;;9.47;;
8252;SDS011;61313;48.396;10.008;2022-09-23T15:31:16;32.50;;;9.27;;
8252;SDS011;61313;48.396;10.008;2022-09-23T15:33:46;45.30;;;9.70;;
8252;SDS011;61313;48.396;10.008;2022-09-23T15:36:16;87.03;;;14.97;;
8252;SDS011;61313;48.396;10.008;2022-09-23T15:38:52;16.33;;;8.40;;
8252;SDS011;61313;48.396;10.008;2022-09-23T15:41:22;16.63;;;8.50;;
8252;SDS011;61313;48.396;10.008;2022-09-23T15:43:48;16.80;;;7.50;;
8252;SDS011;61313;48.396;10.008;2022-09-23T15:46:23;34.53;;;8.77;;
8252;SDS011;61313;48.396;10.008;2022-09-23T15:49:01;28.50;;;9.50;;
8252;SDS011;61313;48.396;10.008;2022-09-23T15:51:28;24.40;;;9.40;;
8252;SDS011;61313;48.396;10.008;2022-09-23T15:53:55;34.47;;;10.13;;
8252;SDS011;61313;48.396;10.008;2022-09-23T15:56:21;14.80;;;7.40;;
8252;SDS011;61313;48.396;10.008;2022-09-23T15:58:47;11.60;;;7.20;;
8252;SDS011;61313;48.396;10.008;2022-09-23T16:01:25;7.83;;;7.13;;
8252;SDS011;61313;48.396;10.008;2022-09-23T16:03:52;10.10;;;6.90;;
8252;SDS011;61313;48.396;10.008;2022-09-23T16:06:18;14.40;;;7.50;;
8252;SDS011;61313;48.396;10.008;2022-09-23T16:08:44;7.27;;;6.57;;
8252;SDS011;61313;48.396;10.008;2022-09-23T16:11:16;7.07;;;6.30;;
8252;SDS011;61313;48.396;10.008;2022-09-23T16:13:44;10.53;;;6.87;;
8252;SDS011;61313;48.396;10.008;2022-09-23T16:16:09;9.50;;;7.80;;
8252;SDS011;61313;48.396;10.008;2022-09-23T16:18:35;9.50;;;8.20;;
8252;SDS011;61313;48.396;10.008;2022-09-23T16:21:03;14.73;;;8.60;;
8252;SDS011;61313;48.396;10.008;2022-09-23T16:23:32;11.03;;;8.20;;
8252;SDS011;61313;48.396;10.008;2022-09-23T16:28:41;14.73;;;8.97;;
8252;SDS011;61313;48.396;10.008;2022-09-23T16:31:07;20.67;;;10.40;;
8252;SDS011;61313;48.396;10.008;2022-09-23T16:33:34;19.20;;;9.17;;
8252;SDS011;61313;48.396;10.008;2022-09-23T16:36:00;30.43;;;11.23;;
8252;SDS011;61313;48.396;10.008;2022-09-23T16:38:27;11.07;;;9.17;;
8252;SDS011;61313;48.396;10.008;2022-09-23T16:40:53;10.37;;;9.27;;
8252;SDS011;61313;48.396;10.008;2022-09-23T16:43:24;20.40;;;9.20;;
8252;SDS011;61313;48.396;10.008;2022-09-23T16:46:03;12.17;;;10.07;;
8252;SDS011;61313;48.396;10.008;2022-09-23T16:48:36;18.80;;;9.90;;
8252;SDS011;61313;48.396;10.008;2022-09-23T16:51:04;54.97;;;14.40;;
8252;SDS011;61313;48.396;10.008;2022-09-23T16:53:31;23.00;;;9.67;;
8252;SDS011;61313;48.396;10.008;2022-09-23T16:56:02;14.17;;;9.97;;
8252;SDS011;61313;48.396;10.008;2022-09-23T16:58:33;17.20;;;10.17;;
8252;SDS011;61313;48.396;10.008;2022-09-23T17:01:02;14.30;;;11.30;;
8252;SDS011;61313;48.396;10.008;2022-09-23T17:03:47;22.23;;;10.27;;
8252;SDS011;61313;48.396;10.008;2022-09-23T17:06:13;16.80;;;9.73;;
8252;SDS011;61313;48.396;10.008;2022-09-23T17:08:40;32.37;;;11.77;;
8252;SDS011;61313;48.396;10.008;2022-09-23T17:11:06;18.60;;;10.40;;
8252;SDS011;61313;48.396;10.008;2022-09-23T17:13:34;25.20;;;12.23;;
8252;SDS011;61313;48.396;10.008;2022-09-23T17:16:00;15.90;;;9.43;;
8252;SDS011;61313;48.396;10.008;2022-09-23T17:18:27;35.03;;;11.33;;
8252;SDS011;61313;48.396;10.008;2022-09-23T17:21:04;20.60;;;12.43;;
8252;SDS011;61313;48.396;10.008;2022-09-23T17:23:31;13.07;;;11.07;;
8252;SDS011;61313;48.396;10.008;2022-09-23T17:25:59;29.17;;;13.63;;
8252;SDS011;61313;48.396;10.008;2022-09-23T17:28:26;28.10;;;14.93;;
8252;SDS011;61313;48.396;10.008;2022-09-23T17:30:56;32.53;;;14.83;;
8252;SDS011;61313;48.396;10.008;2022-09-23T17:33:23;34.50;;;14.57;;
8252;SDS011;61313;48.396;10.008;2022-09-23T17:35:49;23.37;;;13.90;;
8252;SDS011;61313;48.396;10.008;2022-09-23T17:38:16;20.03;;;12.47;;
8252;SDS011;61313;48.396;10.008;2022-09-23T17:40:47;51.57;;;15.83;;
8252;SDS011;61313;48.396;10.008;2022-09-23T17:43:18;21.07;;;15.10;;
8252;SDS011;61313;48.396;10.008;2022-09-23T17:45:48;16.17;;;14.20;;
8252;SDS011;61313;48.396;10.008;2022-09-23T17:48:15;14.17;;;11.50;;
8252;SDS011;61313;48.396;10.008;2022-09-23T17:50:43;12.47;;;11.37;;
8252;SDS011;61313;48.396;10.008;2022-09-23T17:53:21;17.50;;;13.50;;
8252;SDS011;61313;48.396;10.008;2022-09-23T17:56:00;16.30;;;14.57;;